Alnwick, United Kingdom
Current Conditions -  °F | °C
As of 7:50 AM on Tuesday 21 Oct 2014 (Local Time) from EGQM Reporting Station
Broken Clouds Broken Clouds  
Wind Chill: 50°   Ceiling: 9000
Heat Index: 50°   Visibility: 6mi
Dew Point: 41°   Wind: 25mph
Humidity: 71%   Direction: 260°W
Pressure: 29.15"   Gusts: 40mph
Location:  55.41°N, 1.71°W
Report Text: EGQM 210650Z AUTO 26022G35KT 9999 BKN090/// 10/05 Q0987
Loading
Personal Weather Stations






























Interactive Weather Map
Tropical Storm Tracking
New forecast layout! Learn more

10-Day Weather Forecast

Advertisements
Track Severe Weather on mobile